sensor_id;sensor_type;location;lat;lon;timestamp;temperature;humidity
10384;DHT22;5238;43.508;4.980;2022-10-22T00:00:34;23.00;91.30
10384;DHT22;5238;43.508;4.980;2022-10-22T00:03:02;23.00;91.30
10384;DHT22;5238;43.508;4.980;2022-10-22T00:05:29;22.90;91.30
10384;DHT22;5238;43.508;4.980;2022-10-22T00:07:56;22.90;91.30
10384;DHT22;5238;43.508;4.980;2022-10-22T00:10:23;22.90;91.30
10384;DHT22;5238;43.508;4.980;2022-10-22T00:12:50;22.80;91.30
10384;DHT22;5238;43.508;4.980;2022-10-22T00:15:17;22.80;91.30
10384;DHT22;5238;43.508;4.980;2022-10-22T00:17:54;22.80;91.30
10384;DHT22;5238;43.508;4.980;2022-10-22T00:20:23;22.80;91.30
10384;DHT22;5238;43.508;4.980;2022-10-22T00:22:54;22.70;91.30
10384;DHT22;5238;43.508;4.980;2022-10-22T00:25:23;22.70;91.30
10384;DHT22;5238;43.508;4.980;2022-10-22T00:27:52;22.70;91.30
10384;DHT22;5238;43.508;4.980;2022-10-22T00:30:23;22.70;91.30
10384;DHT22;5238;43.508;4.980;2022-10-22T00:33:06;22.70;91.30
10384;DHT22;5238;43.508;4.980;2022-10-22T00:35:37;22.70;91.30
10384;DHT22;5238;43.508;4.980;2022-10-22T00:38:39;22.60;91.30
10384;DHT22;5238;43.508;4.980;2022-10-22T00:41:18;22.60;91.30
10384;DHT22;5238;43.508;4.980;2022-10-22T00:43:53;22.60;91.30
10384;DHT22;5238;43.508;4.980;2022-10-22T00:46:28;22.60;91.30
10384;DHT22;5238;43.508;4.980;2022-10-22T00:49:05;22.60;91.30
10384;DHT22;5238;43.508;4.980;2022-10-22T00:51:34;22.60;91.30
10384;DHT22;5238;43.508;4.980;2022-10-22T00:54:08;22.60;91.30
10384;DHT22;5238;43.508;4.980;2022-10-22T00:56:49;22.60;91.30
10384;DHT22;5238;43.508;4.980;2022-10-22T00:59:20;22.60;91.30
10384;DHT22;5238;43.508;4.980;2022-10-22T01:01:51;22.50;91.30
10384;DHT22;5238;43.508;4.980;2022-10-22T01:04:25;22.50;91.30
10384;DHT22;5238;43.508;4.980;2022-10-22T01:06:56;22.50;91.30
10384;DHT22;5238;43.508;4.980;2022-10-22T01:09:43;22.50;91.30
10384;DHT22;5238;43.508;4.980;2022-10-22T01:12:19;22.40;91.30
10384;DHT22;5238;43.508;4.980;2022-10-22T01:15:20;22.40;91.30
10384;DHT22;5238;43.508;4.980;2022-10-22T01:17:56;22.40;91.30
10384;DHT22;5238;43.508;4.980;2022-10-22T01:20:58;22.40;91.30
10384;DHT22;5238;43.508;4.980;2022-10-22T01:23:53;22.30;91.30
10384;DHT22;5238;43.508;4.980;2022-10-22T01:26:57;22.30;91.30
10384;DHT22;5238;43.508;4.980;2022-10-22T01:29:33;22.30;91.30
10384;DHT22;5238;43.508;4.980;2022-10-22T01:32:06;22.30;91.30
10384;DHT22;5238;43.508;4.980;2022-10-22T01:34:37;22.20;91.30
10384;DHT22;5238;43.508;4.980;2022-10-22T01:37:11;22.20;91.30
10384;DHT22;5238;43.508;4.980;2022-10-22T01:39:42;22.10;91.30
10384;DHT22;5238;43.508;4.980;2022-10-22T01:42:14;22.10;91.30
10384;DHT22;5238;43.508;4.980;2022-10-22T01:44:46;22.10;91.30
10384;DHT22;5238;43.508;4.980;2022-10-22T01:47:19;22.10;91.30
10384;DHT22;5238;43.508;4.980;2022-10-22T01:50:08;22.10;91.30
10384;DHT22;5238;43.508;4.980;2022-10-22T01:52:59;22.10;91.30
10384;DHT22;5238;43.508;4.980;2022-10-22T01:56:03;22.10;91.30
10384;DHT22;5238;43.508;4.980;2022-10-22T01:58:41;22.20;91.30
10384;DHT22;5238;43.508;4.980;2022-10-22T02:01:25;22.20;91.30
10384;DHT22;5238;43.508;4.980;2022-10-22T02:04:09;22.20;91.30
10384;DHT22;5238;43.508;4.980;2022-10-22T02:06:38;22.20;91.30
10384;DHT22;5238;43.508;4.980;2022-10-22T02:09:13;22.20;91.30
10384;DHT22;5238;43.508;4.980;2022-10-22T02:11:53;22.30;91.30
10384;DHT22;5238;43.508;4.980;2022-10-22T02:14:22;22.30;91.30
10384;DHT22;5238;43.508;4.980;2022-10-22T02:16:53;22.30;91.30
10384;DHT22;5238;43.508;4.980;2022-10-22T02:19:49;22.30;91.30
10384;DHT22;5238;43.508;4.980;2022-10-22T02:22:28;22.30;91.30
10384;DHT22;5238;43.508;4.980;2022-10-22T02:24:57;22.30;91.30
10384;DHT22;5238;43.508;4.980;2022-10-22T02:27:31;22.30;91.30
10384;DHT22;5238;43.508;4.980;2022-10-22T02:30:10;22.40;91.30
10384;DHT22;5238;43.508;4.980;2022-10-22T02:32:46;22.40;91.30
10384;DHT22;5238;43.508;4.980;2022-10-22T02:35:20;22.40;91.30
10384;DHT22;5238;43.508;4.980;2022-10-22T02:37:48;22.40;91.30
10384;DHT22;5238;43.508;4.980;2022-10-22T02:40:33;22.40;91.30
10384;DHT22;5238;43.508;4.980;2022-10-22T02:43:11;22.40;91.30
10384;DHT22;5238;43.508;4.980;2022-10-22T02:45:59;22.40;91.30
10384;DHT22;5238;43.508;4.980;2022-10-22T02:48:38;22.40;91.30
10384;DHT22;5238;43.508;4.980;2022-10-22T02:51:10;22.40;91.30
10384;DHT22;5238;43.508;4.980;2022-10-22T02:53:41;22.40;91.30
10384;DHT22;5238;43.508;4.980;2022-10-22T02:56:14;22.40;91.30
10384;DHT22;5238;43.508;4.980;2022-10-22T02:58:41;22.40;91.30
10384;DHT22;5238;43.508;4.980;2022-10-22T03:01:10;22.40;91.30
10384;DHT22;5238;43.508;4.980;2022-10-22T03:03:43;22.40;91.30
10384;DHT22;5238;43.508;4.980;2022-10-22T03:06:16;22.40;91.30
10384;DHT22;5238;43.508;4.980;2022-10-22T03:08:45;22.40;91.30
10384;DHT22;5238;43.508;4.980;2022-10-22T03:11:20;22.40;91.30
10384;DHT22;5238;43.508;4.980;2022-10-22T03:13:48;22.40;91.30
10384;DHT22;5238;43.508;4.980;2022-10-22T03:16:16;22.40;91.30
10384;DHT22;5238;43.508;4.980;2022-10-22T03:18:54;22.40;91.30
10384;DHT22;5238;43.508;4.980;2022-10-22T03:21:27;22.40;91.30
10384;DHT22;5238;43.508;4.980;2022-10-22T03:24:06;22.40;91.30
10384;DHT22;5238;43.508;4.980;2022-10-22T03:26:40;22.40;91.30
10384;DHT22;5238;43.508;4.980;2022-10-22T03:29:17;22.40;91.30
10384;DHT22;5238;43.508;4.980;2022-10-22T03:31:47;22.40;91.30
10384;DHT22;5238;43.508;4.980;2022-10-22T03:34:15;22.50;91.30
10384;DHT22;5238;43.508;4.980;2022-10-22T03:36:42;22.40;91.30
10384;DHT22;5238;43.508;4.980;2022-10-22T03:39:12;22.50;91.30
10384;DHT22;5238;43.508;4.980;2022-10-22T03:41:40;22.50;91.30
10384;DHT22;5238;43.508;4.980;2022-10-22T03:44:09;22.50;91.30
10384;DHT22;5238;43.508;4.980;2022-10-22T03:46:36;22.50;91.30
10384;DHT22;5238;43.508;4.980;2022-10-22T03:49:03;22.50;91.30
10384;DHT22;5238;43.508;4.980;2022-10-22T03:51:32;22.60;91.30
10384;DHT22;5238;43.508;4.980;2022-10-22T03:54:01;22.60;91.30
10384;DHT22;5238;43.508;4.980;2022-10-22T03:56:32;22.60;91.30
10384;DHT22;5238;43.508;4.980;2022-10-22T03:59:07;22.60;91.30
10384;DHT22;5238;43.508;4.980;2022-10-22T04:01:43;22.70;91.30
10384;DHT22;5238;43.508;4.980;2022-10-22T04:04:12;22.70;91.30
10384;DHT22;5238;43.508;4.980;2022-10-22T04:06:45;22.70;91.30
10384;DHT22;5238;43.508;4.980;2022-10-22T04:09:13;22.70;91.30
10384;DHT22;5238;43.508;4.980;2022-10-22T04:11:40;22.70;91.30
10384;DHT22;5238;43.508;4.980;2022-10-22T04:14:07;22.70;91.30
10384;DHT22;5238;43.508;4.980;2022-10-22T04:16:38;22.70;91.30
10384;DHT22;5238;43.508;4.980;2022-10-22T04:19:10;22.70;91.30
10384;DHT22;5238;43.508;4.980;2022-10-22T04:21:37;22.70;91.30
10384;DHT22;5238;43.508;4.980;2022-10-22T04:24:11;22.70;91.30
10384;DHT22;5238;43.508;4.980;2022-10-22T04:26:40;22.70;91.30
10384;DHT22;5238;43.508;4.980;2022-10-22T04:29:09;22.70;91.30
10384;DHT22;5238;43.508;4.980;2022-10-22T04:31:56;22.70;91.30
10384;DHT22;5238;43.508;4.980;2022-10-22T04:34:28;22.70;91.30
10384;DHT22;5238;43.508;4.980;2022-10-22T04:36:57;22.70;91.30
10384;DHT22;5238;43.508;4.980;2022-10-22T04:39:28;22.70;91.30
10384;DHT22;5238;43.508;4.980;2022-10-22T04:41:56;22.70;91.30
10384;DHT22;5238;43.508;4.980;2022-10-22T04:44:33;22.70;91.30
10384;DHT22;5238;43.508;4.980;2022-10-22T04:47:00;22.70;91.30
10384;DHT22;5238;43.508;4.980;2022-10-22T04:49:27;22.70;91.30
10384;DHT22;5238;43.508;4.980;2022-10-22T04:51:54;22.70;91.30
10384;DHT22;5238;43.508;4.980;2022-10-22T04:54:21;22.70;91.30
10384;DHT22;5238;43.508;4.980;2022-10-22T04:56:50;22.70;91.30
10384;DHT22;5238;43.508;4.980;2022-10-22T04:59:17;22.70;91.30
10384;DHT22;5238;43.508;4.980;2022-10-22T05:01:44;22.70;91.30
10384;DHT22;5238;43.508;4.980;2022-10-22T05:04:13;22.80;91.30
10384;DHT22;5238;43.508;4.980;2022-10-22T05:06:44;22.80;91.30
10384;DHT22;5238;43.508;4.980;2022-10-22T05:09:18;22.70;91.30
10384;DHT22;5238;43.508;4.980;2022-10-22T05:11:49;22.80;91.30
10384;DHT22;5238;43.508;4.980;2022-10-22T05:14:26;22.80;91.30
10384;DHT22;5238;43.508;4.980;2022-10-22T05:16:53;22.80;91.30
10384;DHT22;5238;43.508;4.980;2022-10-22T05:19:30;22.80;91.30
10384;DHT22;5238;43.508;4.980;2022-10-22T05:21:59;22.80;91.30
10384;DHT22;5238;43.508;4.980;2022-10-22T05:24:45;22.80;91.30
10384;DHT22;5238;43.508;4.980;2022-10-22T05:27:14;22.80;91.30
10384;DHT22;5238;43.508;4.980;2022-10-22T05:29:55;22.80;91.30
10384;DHT22;5238;43.508;4.980;2022-10-22T05:32:23;22.80;91.30
10384;DHT22;5238;43.508;4.980;2022-10-22T05:34:52;22.80;91.30
10384;DHT22;5238;43.508;4.980;2022-10-22T05:37:21;22.80;91.30
10384;DHT22;5238;43.508;4.980;2022-10-22T05:39:48;22.80;91.30
10384;DHT22;5238;43.508;4.980;2022-10-22T05:42:15;22.80;91.30
10384;DHT22;5238;43.508;4.980;2022-10-22T05:44:44;22.80;91.30
10384;DHT22;5238;43.508;4.980;2022-10-22T05:47:14;22.80;91.30
10384;DHT22;5238;43.508;4.980;2022-10-22T05:49:41;22.80;91.30
10384;DHT22;5238;43.508;4.980;2022-10-22T05:52:08;22.80;91.30
10384;DHT22;5238;43.508;4.980;2022-10-22T05:54:37;22.80;91.30
10384;DHT22;5238;43.508;4.980;2022-10-22T05:57:04;22.80;91.30
10384;DHT22;5238;43.508;4.980;2022-10-22T05:59:34;22.80;91.30
10384;DHT22;5238;43.508;4.980;2022-10-22T06:02:05;22.80;91.30
10384;DHT22;5238;43.508;4.980;2022-10-22T06:04:32;22.80;91.30
10384;DHT22;5238;43.508;4.980;2022-10-22T06:07:00;22.80;91.30
10384;DHT22;5238;43.508;4.980;2022-10-22T06:09:30;22.80;91.30
10384;DHT22;5238;43.508;4.980;2022-10-22T06:11:58;22.80;91.30
10384;DHT22;5238;43.508;4.980;2022-10-22T06:14:26;22.80;91.30
10384;DHT22;5238;43.508;4.980;2022-10-22T06:16:53;22.80;91.30
10384;DHT22;5238;43.508;4.980;2022-10-22T06:19:22;22.80;91.30
10384;DHT22;5238;43.508;4.980;2022-10-22T06:21:52;22.80;91.30
10384;DHT22;5238;43.508;4.980;2022-10-22T06:24:19;22.80;91.30
10384;DHT22;5238;43.508;4.980;2022-10-22T06:26:49;22.70;91.30
10384;DHT22;5238;43.508;4.980;2022-10-22T06:29:16;22.70;91.30
10384;DHT22;5238;43.508;4.980;2022-10-22T06:31:47;22.70;91.30
10384;DHT22;5238;43.508;4.980;2022-10-22T06:34:14;22.70;91.30
10384;DHT22;5238;43.508;4.980;2022-10-22T06:36:45;22.60;91.30
10384;DHT22;5238;43.508;4.980;2022-10-22T06:39:13;22.60;91.30
10384;DHT22;5238;43.508;4.980;2022-10-22T06:41:41;22.60;91.30
10384;DHT22;5238;43.508;4.980;2022-10-22T06:44:12;22.60;91.30
10384;DHT22;5238;43.508;4.980;2022-10-22T06:46:40;22.60;91.30
10384;DHT22;5238;43.508;4.980;2022-10-22T06:49:12;22.60;91.30
10384;DHT22;5238;43.508;4.980;2022-10-22T06:51:51;22.50;91.30
10384;DHT22;5238;43.508;4.980;2022-10-22T06:54:18;22.60;91.30
10384;DHT22;5238;43.508;4.980;2022-10-22T06:56:50;22.50;91.30
10384;DHT22;5238;43.508;4.980;2022-10-22T06:59:18;22.50;91.30
10384;DHT22;5238;43.508;4.980;2022-10-22T07:01:46;22.50;91.30
10384;DHT22;5238;43.508;4.980;2022-10-22T07:04:21;22.50;91.30
10384;DHT22;5238;43.508;4.980;2022-10-22T07:06:49;22.50;91.30
10384;DHT22;5238;43.508;4.980;2022-10-22T07:09:16;22.60;91.30
10384;DHT22;5238;43.508;4.980;2022-10-22T07:11:44;22.50;91.30
10384;DHT22;5238;43.508;4.980;2022-10-22T07:14:12;22.60;91.30
10384;DHT22;5238;43.508;4.980;2022-10-22T07:16:40;22.60;91.30
10384;DHT22;5238;43.508;4.980;2022-10-22T07:19:07;22.50;91.30
10384;DHT22;5238;43.508;4.980;2022-10-22T07:21:36;22.50;91.30
10384;DHT22;5238;43.508;4.980;2022-10-22T07:24:11;22.50;91.30
10384;DHT22;5238;43.508;4.980;2022-10-22T07:26:39;22.50;91.30
10384;DHT22;5238;43.508;4.980;2022-10-22T07:29:06;22.50;91.30
10384;DHT22;5238;43.508;4.980;2022-10-22T07:31:34;22.50;91.30
10384;DHT22;5238;43.508;4.980;2022-10-22T07:34:10;22.50;91.30
10384;DHT22;5238;43.508;4.980;2022-10-22T07:36:38;22.50;91.30
10384;DHT22;5238;43.508;4.980;2022-10-22T07:39:17;22.50;91.30
10384;DHT22;5238;43.508;4.980;2022-10-22T07:41:44;22.50;91.30
10384;DHT22;5238;43.508;4.980;2022-10-22T07:44:11;22.50;91.30
10384;DHT22;5238;43.508;4.980;2022-10-22T07:46:44;22.50;91.30
10384;DHT22;5238;43.508;4.980;2022-10-22T07:49:11;22.50;91.30
10384;DHT22;5238;43.508;4.980;2022-10-22T07:51:43;22.50;91.30
10384;DHT22;5238;43.508;4.980;2022-10-22T07:54:16;22.60;91.30
10384;DHT22;5238;43.508;4.980;2022-10-22T07:56:44;22.60;91.30
10384;DHT22;5238;43.508;4.980;2022-10-22T07:59:11;22.60;91.30
10384;DHT22;5238;43.508;4.980;2022-10-22T08:01:38;22.60;91.30
10384;DHT22;5238;43.508;4.980;2022-10-22T08:04:05;22.70;91.30
10384;DHT22;5238;43.508;4.980;2022-10-22T08:06:34;22.70;91.30
10384;DHT22;5238;43.508;4.980;2022-10-22T08:09:03;22.70;91.30
10384;DHT22;5238;43.508;4.980;2022-10-22T08:11:32;22.70;91.30
10384;DHT22;5238;43.508;4.980;2022-10-22T08:13:59;22.70;91.30
10384;DHT22;5238;43.508;4.980;2022-10-22T08:16:26;22.70;91.30
10384;DHT22;5238;43.508;4.980;2022-10-22T08:18:53;22.70;91.30
10384;DHT22;5238;43.508;4.980;2022-10-22T08:21:20;22.70;91.30
10384;DHT22;5238;43.508;4.980;2022-10-22T08:23:47;22.80;91.30
10384;DHT22;5238;43.508;4.980;2022-10-22T08:26:14;22.80;91.30
10384;DHT22;5238;43.508;4.980;2022-10-22T08:28:45;22.80;91.30
10384;DHT22;5238;43.508;4.980;2022-10-22T08:31:12;22.80;91.30
10384;DHT22;5238;43.508;4.980;2022-10-22T08:33:39;22.80;91.30
10384;DHT22;5238;43.508;4.980;2022-10-22T08:36:08;22.90;91.30
10384;DHT22;5238;43.508;4.980;2022-10-22T08:38:50;22.90;91.30
10384;DHT22;5238;43.508;4.980;2022-10-22T08:41:23;23.00;91.30
10384;DHT22;5238;43.508;4.980;2022-10-22T08:44:21;23.00;91.30
10384;DHT22;5238;43.508;4.980;2022-10-22T08:47:08;23.00;91.30
10384;DHT22;5238;43.508;4.980;2022-10-22T08:49:43;23.10;91.30
10384;DHT22;5238;43.508;4.980;2022-10-22T08:52:14;23.10;91.30
10384;DHT22;5238;43.508;4.980;2022-10-22T08:55:01;23.10;91.30
10384;DHT22;5238;43.508;4.980;2022-10-22T08:57:41;23.10;91.30
10384;DHT22;5238;43.508;4.980;2022-10-22T09:00:18;23.20;91.30
10384;DHT22;5238;43.508;4.980;2022-10-22T09:02:57;23.20;91.30
10384;DHT22;5238;43.508;4.980;2022-10-22T09:05:32;23.20;91.30
10384;DHT22;5238;43.508;4.980;2022-10-22T09:08:01;23.20;91.30
10384;DHT22;5238;43.508;4.980;2022-10-22T09:10:33;23.20;91.30
10384;DHT22;5238;43.508;4.980;2022-10-22T09:13:01;23.20;91.30
10384;DHT22;5238;43.508;4.980;2022-10-22T09:15:30;23.20;91.30
10384;DHT22;5238;43.508;4.980;2022-10-22T09:18:14;23.20;91.30
10384;DHT22;5238;43.508;4.980;2022-10-22T09:20:49;23.30;91.30
10384;DHT22;5238;43.508;4.980;2022-10-22T09:23:25;23.30;91.30
10384;DHT22;5238;43.508;4.980;2022-10-22T09:25:56;23.30;91.30
10384;DHT22;5238;43.508;4.980;2022-10-22T09:28:23;23.30;91.30
10384;DHT22;5238;43.508;4.980;2022-10-22T09:30:51;23.30;91.30
10384;DHT22;5238;43.508;4.980;2022-10-22T09:33:23;23.30;91.30
10384;DHT22;5238;43.508;4.980;2022-10-22T09:35:52;23.30;91.30
10384;DHT22;5238;43.508;4.980;2022-10-22T09:38:24;23.30;91.30
10384;DHT22;5238;43.508;4.980;2022-10-22T09:40:55;23.30;91.30
10384;DHT22;5238;43.508;4.980;2022-10-22T09:43:23;23.30;91.30
10384;DHT22;5238;43.508;4.980;2022-10-22T09:45:58;23.20;91.30
10384;DHT22;5238;43.508;4.980;2022-10-22T09:48:28;23.30;91.30
10384;DHT22;5238;43.508;4.980;2022-10-22T09:51:02;23.30;91.30
10384;DHT22;5238;43.508;4.980;2022-10-22T09:53:35;23.30;91.30
10384;DHT22;5238;43.508;4.980;2022-10-22T09:56:07;23.30;91.30
10384;DHT22;5238;43.508;4.980;2022-10-22T09:58:41;23.30;91.30
10384;DHT22;5238;43.508;4.980;2022-10-22T10:01:17;23.30;91.30
10384;DHT22;5238;43.508;4.980;2022-10-22T10:03:53;23.30;91.30
10384;DHT22;5238;43.508;4.980;2022-10-22T10:06:31;23.40;91.30
10384;DHT22;5238;43.508;4.980;2022-10-22T10:09:17;23.40;91.30
10384;DHT22;5238;43.508;4.980;2022-10-22T10:11:48;23.40;91.30
10384;DHT22;5238;43.508;4.980;2022-10-22T10:14:23;23.50;91.30
10384;DHT22;5238;43.508;4.980;2022-10-22T10:17:20;23.50;91.30
10384;DHT22;5238;43.508;4.980;2022-10-22T10:19:58;23.60;91.30
10384;DHT22;5238;43.508;4.980;2022-10-22T10:22:40;23.60;91.30
10384;DHT22;5238;43.508;4.980;2022-10-22T10:28:19;23.70;91.30
10384;DHT22;5238;43.508;4.980;2022-10-22T10:30:53;23.80;91.30
10384;DHT22;5238;43.508;4.980;2022-10-22T10:33:31;23.80;91.30
10384;DHT22;5238;43.508;4.980;2022-10-22T10:36:04;23.90;91.30
10384;DHT22;5238;43.508;4.980;2022-10-22T10:38:41;23.90;91.30
10384;DHT22;5238;43.508;4.980;2022-10-22T10:41:20;24.00;91.30
10384;DHT22;5238;43.508;4.980;2022-10-22T10:46:53;24.10;91.30
10384;DHT22;5238;43.508;4.980;2022-10-22T10:49:26;24.20;91.30
10384;DHT22;5238;43.508;4.980;2022-10-22T10:52:02;24.30;91.30
10384;DHT22;5238;43.508;4.980;2022-10-22T10:54:45;24.40;91.30
10384;DHT22;5238;43.508;4.980;2022-10-22T10:57:28;24.50;91.30
10384;DHT22;5238;43.508;4.980;2022-10-22T11:00:03;24.50;91.30
10384;DHT22;5238;43.508;4.980;2022-10-22T11:05:37;24.60;91.30
10384;DHT22;5238;43.508;4.980;2022-10-22T11:08:10;24.70;91.30
10384;DHT22;5238;43.508;4.980;2022-10-22T11:10:41;24.70;91.30
10384;DHT22;5238;43.508;4.980;2022-10-22T11:13:16;24.70;91.30
10384;DHT22;5238;43.508;4.980;2022-10-22T11:15:51;24.80;91.30
10384;DHT22;5238;43.508;4.980;2022-10-22T11:18:32;24.80;91.30
10384;DHT22;5238;43.508;4.980;2022-10-22T11:21:20;24.70;91.30
10384;DHT22;5238;43.508;4.980;2022-10-22T11:23:52;24.70;91.30
10384;DHT22;5238;43.508;4.980;2022-10-22T11:26:39;24.70;91.30
10384;DHT22;5238;43.508;4.980;2022-10-22T11:29:21;24.70;91.30
10384;DHT22;5238;43.508;4.980;2022-10-22T11:31:52;24.70;91.30
10384;DHT22;5238;43.508;4.980;2022-10-22T11:34:24;24.60;91.30
10384;DHT22;5238;43.508;4.980;2022-10-22T11:36:54;24.60;91.30
10384;DHT22;5238;43.508;4.980;2022-10-22T11:39:38;24.50;91.30
10384;DHT22;5238;43.508;4.980;2022-10-22T11:42:10;24.60;91.30
10384;DHT22;5238;43.508;4.980;2022-10-22T11:44:57;24.70;91.30
10384;DHT22;5238;43.508;4.980;2022-10-22T11:47:27;24.70;91.30
10384;DHT22;5238;43.508;4.980;2022-10-22T11:50:18;24.80;91.30
10384;DHT22;5238;43.508;4.980;2022-10-22T11:52:59;24.90;91.30
10384;DHT22;5238;43.508;4.980;2022-10-22T11:55:33;24.90;91.30
10384;DHT22;5238;43.508;4.980;2022-10-22T11:58:28;25.00;91.30
10384;DHT22;5238;43.508;4.980;2022-10-22T12:01:28;25.00;91.30
10384;DHT22;5238;43.508;4.980;2022-10-22T12:04:19;25.10;91.30
10384;DHT22;5238;43.508;4.980;2022-10-22T12:06:57;25.20;91.30
10384;DHT22;5238;43.508;4.980;2022-10-22T12:09:51;25.30;91.30
10384;DHT22;5238;43.508;4.980;2022-10-22T12:12:20;25.40;91.30
10384;DHT22;5238;43.508;4.980;2022-10-22T12:14:54;25.40;91.30
10384;DHT22;5238;43.508;4.980;2022-10-22T12:17:28;25.50;91.30
10384;DHT22;5238;43.508;4.980;2022-10-22T12:20:01;25.50;91.30
10384;DHT22;5238;43.508;4.980;2022-10-22T12:22:37;25.60;91.30
10384;DHT22;5238;43.508;4.980;2022-10-22T12:25:16;25.60;91.30
10384;DHT22;5238;43.508;4.980;2022-10-22T12:27:50;25.60;91.30
10384;DHT22;5238;43.508;4.980;2022-10-22T12:30:27;25.60;91.30
10384;DHT22;5238;43.508;4.980;2022-10-22T12:33:00;25.60;91.30
10384;DHT22;5238;43.508;4.980;2022-10-22T12:35:31;25.60;91.30
10384;DHT22;5238;43.508;4.980;2022-10-22T12:38:04;25.60;91.30
10384;DHT22;5238;43.508;4.980;2022-10-22T12:41:07;25.60;91.30
10384;DHT22;5238;43.508;4.980;2022-10-22T12:43:36;25.60;91.30
10384;DHT22;5238;43.508;4.980;2022-10-22T12:46:10;25.60;91.30
10384;DHT22;5238;43.508;4.980;2022-10-22T12:48:44;25.50;91.30
10384;DHT22;5238;43.508;4.980;2022-10-22T12:51:16;25.50;91.30
10384;DHT22;5238;43.508;4.980;2022-10-22T12:53:53;25.60;91.30
10384;DHT22;5238;43.508;4.980;2022-10-22T12:56:28;25.60;91.30
10384;DHT22;5238;43.508;4.980;2022-10-22T12:58:58;25.60;91.30
10384;DHT22;5238;43.508;4.980;2022-10-22T13:01:27;25.60;91.30
10384;DHT22;5238;43.508;4.980;2022-10-22T13:04:18;25.60;91.30
10384;DHT22;5238;43.508;4.980;2022-10-22T13:06:48;25.60;91.30
10384;DHT22;5238;43.508;4.980;2022-10-22T13:09:22;25.70;91.30
10384;DHT22;5238;43.508;4.980;2022-10-22T13:12:04;25.70;91.30
10384;DHT22;5238;43.508;4.980;2022-10-22T13:14:33;25.70;91.30
10384;DHT22;5238;43.508;4.980;2022-10-22T13:17:08;25.70;91.30
10384;DHT22;5238;43.508;4.980;2022-10-22T13:19:46;25.70;91.30
10384;DHT22;5238;43.508;4.980;2022-10-22T13:22:31;25.70;91.30
10384;DHT22;5238;43.508;4.980;2022-10-22T13:25:14;25.70;91.30
10384;DHT22;5238;43.508;4.980;2022-10-22T13:27:48;25.80;91.30
10384;DHT22;5238;43.508;4.980;2022-10-22T13:30:25;25.80;91.30
10384;DHT22;5238;43.508;4.980;2022-10-22T13:32:59;25.90;91.30
10384;DHT22;5238;43.508;4.980;2022-10-22T13:35:35;26.00;91.30
10384;DHT22;5238;43.508;4.980;2022-10-22T13:38:11;26.00;91.30
10384;DHT22;5238;43.508;4.980;2022-10-22T13:40:39;26.10;91.30
10384;DHT22;5238;43.508;4.980;2022-10-22T13:43:08;26.10;91.30
10384;DHT22;5238;43.508;4.980;2022-10-22T13:45:36;26.20;91.30
10384;DHT22;5238;43.508;4.980;2022-10-22T13:48:04;26.20;91.30
10384;DHT22;5238;43.508;4.980;2022-10-22T13:50:32;26.30;91.30
10384;DHT22;5238;43.508;4.980;2022-10-22T13:52:59;26.30;91.30
10384;DHT22;5238;43.508;4.980;2022-10-22T13:55:28;26.30;91.30
10384;DHT22;5238;43.508;4.980;2022-10-22T13:57:56;26.30;91.30
10384;DHT22;5238;43.508;4.980;2022-10-22T14:00:38;26.20;91.30
10384;DHT22;5238;43.508;4.980;2022-10-22T14:03:09;26.20;91.30
10384;DHT22;5238;43.508;4.980;2022-10-22T14:05:37;26.20;91.30
10384;DHT22;5238;43.508;4.980;2022-10-22T14:08:08;26.20;91.30
10384;DHT22;5238;43.508;4.980;2022-10-22T14:10:45;26.10;91.30
10384;DHT22;5238;43.508;4.980;2022-10-22T14:13:17;26.10;91.30
10384;DHT22;5238;43.508;4.980;2022-10-22T14:15:49;26.00;91.30
10384;DHT22;5238;43.508;4.980;2022-10-22T14:18:23;26.00;91.30
10384;DHT22;5238;43.508;4.980;2022-10-22T14:21:02;25.90;91.30
10384;DHT22;5238;43.508;4.980;2022-10-22T14:23:50;25.90;91.30
10384;DHT22;5238;43.508;4.980;2022-10-22T14:26:25;25.80;91.30
10384;DHT22;5238;43.508;4.980;2022-10-22T14:28:56;25.80;91.30
10384;DHT22;5238;43.508;4.980;2022-10-22T14:31:35;25.80;91.30
10384;DHT22;5238;43.508;4.980;2022-10-22T14:34:05;25.80;91.30
10384;DHT22;5238;43.508;4.980;2022-10-22T14:36:32;25.80;91.30
10384;DHT22;5238;43.508;4.980;2022-10-22T14:38:59;25.70;91.30
10384;DHT22;5238;43.508;4.980;2022-10-22T14:41:29;25.80;91.30
10384;DHT22;5238;43.508;4.980;2022-10-22T14:43:56;25.70;91.30
10384;DHT22;5238;43.508;4.980;2022-10-22T14:46:24;25.70;91.30
10384;DHT22;5238;43.508;4.980;2022-10-22T14:48:55;25.70;91.30
10384;DHT22;5238;43.508;4.980;2022-10-22T14:51:24;25.70;91.30
10384;DHT22;5238;43.508;4.980;2022-10-22T14:53:53;25.70;91.30
10384;DHT22;5238;43.508;4.980;2022-10-22T14:56:25;25.70;91.30
10384;DHT22;5238;43.508;4.980;2022-10-22T14:59:00;25.70;91.30
10384;DHT22;5238;43.508;4.980;2022-10-22T15:01:27;25.70;91.30
10384;DHT22;5238;43.508;4.980;2022-10-22T15:06:45;25.60;91.30
10384;DHT22;5238;43.508;4.980;2022-10-22T15:09:21;25.60;91.30
10384;DHT22;5238;43.508;4.980;2022-10-22T15:11:55;25.60;91.30
10384;DHT22;5238;43.508;4.980;2022-10-22T15:14:30;25.60;91.30
10384;DHT22;5238;43.508;4.980;2022-10-22T15:16:58;25.50;91.30
10384;DHT22;5238;43.508;4.980;2022-10-22T15:19:36;25.50;91.30
10384;DHT22;5238;43.508;4.980;2022-10-22T15:22:05;25.50;91.30
10384;DHT22;5238;43.508;4.980;2022-10-22T15:24:34;25.50;91.30
10384;DHT22;5238;43.508;4.980;2022-10-22T15:27:02;25.50;91.30
10384;DHT22;5238;43.508;4.980;2022-10-22T15:29:31;25.50;91.30
10384;DHT22;5238;43.508;4.980;2022-10-22T15:31:58;25.40;91.30
10384;DHT22;5238;43.508;4.980;2022-10-22T15:34:38;25.40;91.30
10384;DHT22;5238;43.508;4.980;2022-10-22T15:37:11;25.40;91.30
10384;DHT22;5238;43.508;4.980;2022-10-22T15:39:42;25.40;91.30
10384;DHT22;5238;43.508;4.980;2022-10-22T15:42:09;25.30;91.30
10384;DHT22;5238;43.508;4.980;2022-10-22T15:44:37;25.30;91.30
10384;DHT22;5238;43.508;4.980;2022-10-22T15:47:05;25.30;91.30
10384;DHT22;5238;43.508;4.980;2022-10-22T15:49:36;25.30;91.30
10384;DHT22;5238;43.508;4.980;2022-10-22T15:52:05;25.20;91.30
10384;DHT22;5238;43.508;4.980;2022-10-22T15:54:33;25.20;91.30
10384;DHT22;5238;43.508;4.980;2022-10-22T15:57:02;25.20;91.30
10384;DHT22;5238;43.508;4.980;2022-10-22T15:59:33;25.10;91.30
10384;DHT22;5238;43.508;4.980;2022-10-22T16:02:00;25.10;91.30
10384;DHT22;5238;43.508;4.980;2022-10-22T16:04:27;25.10;91.30
10384;DHT22;5238;43.508;4.980;2022-10-22T16:06:59;25.00;91.30
10384;DHT22;5238;43.508;4.980;2022-10-22T16:09:36;25.00;91.30
10384;DHT22;5238;43.508;4.980;2022-10-22T16:12:07;24.90;91.30
10384;DHT22;5238;43.508;4.980;2022-10-22T16:14:35;24.90;91.30
10384;DHT22;5238;43.508;4.980;2022-10-22T16:17:02;24.80;91.30
10384;DHT22;5238;43.508;4.980;2022-10-22T16:19:29;24.80;91.30
10384;DHT22;5238;43.508;4.980;2022-10-22T16:21:59;24.70;91.30
10384;DHT22;5238;43.508;4.980;2022-10-22T16:24:28;24.70;91.30
10384;DHT22;5238;43.508;4.980;2022-10-22T16:26:55;24.60;91.30
10384;DHT22;5238;43.508;4.980;2022-10-22T16:29:22;24.60;91.30
10384;DHT22;5238;43.508;4.980;2022-10-22T16:31:49;24.50;91.30
10384;DHT22;5238;43.508;4.980;2022-10-22T16:34:17;24.50;91.30